createdAt,value
2023-02-17T00:00:54.111Z,420.19
2023-02-17T00:04:03.939Z,424.61
2023-02-17T00:07:10.616Z,424.03
2023-02-17T00:10:16.562Z,425.07
2023-02-17T00:13:23.228Z,418.95
2023-02-17T00:16:32.331Z,417.19
2023-02-17T00:19:41.663Z,412.16
2023-02-17T00:22:47.568Z,404.32
2023-02-17T00:25:54.278Z,406.02
2023-02-17T00:29:02.084Z,419.49
2023-02-17T00:32:10.709Z,415.08
2023-02-17T00:35:19.882Z,431.02
2023-02-17T00:38:26.845Z,444.06
2023-02-17T00:41:33.802Z,451.76
2023-02-17T00:44:40.486Z,448.03
2023-02-17T00:47:46.255Z,454.32
2023-02-17T00:50:55.582Z,459.15
2023-02-17T00:54:01.417Z,466.22
2023-02-17T00:57:08.268Z,464.38
2023-02-17T01:00:16.083Z,466.13
2023-02-17T01:03:23.159Z,476.57
2023-02-17T01:06:36.807Z,469.61
2023-02-17T01:09:43.548Z,471.61
2023-02-17T01:12:49.370Z,465.40
2023-02-17T01:15:57.075Z,455.46
2023-02-17T01:19:03.686Z,463.18
2023-02-17T01:22:13.810Z,467.15
2023-02-17T01:25:19.830Z,451.42
2023-02-17T01:28:26.721Z,440.14
2023-02-17T01:31:39.447Z,441.83
2023-02-17T01:34:46.341Z,435.98
2023-02-17T01:37:54.778Z,438.20
2023-02-17T01:41:07.797Z,436.80
2023-02-17T01:44:21.987Z,436.11
2023-02-17T01:47:32.840Z,434.16
2023-02-17T01:50:48.222Z,434.84
2023-02-17T01:54:10.573Z,424.57
2023-02-17T01:57:26.786Z,419.52
2023-02-17T02:00:44.117Z,420.59
2023-02-17T02:03:53.576Z,413.41
2023-02-17T02:07:04.975Z,406.79
2023-02-17T02:10:17.562Z,410.30
2023-02-17T02:13:24.925Z,433.64
2023-02-17T02:16:49.803Z,446.42
2023-02-17T02:20:31.542Z,437.73
2023-02-17T02:24:08.319Z,393.83
2023-02-17T02:27:48.952Z,385.04
2023-02-17T02:31:27.705Z,376.66
2023-02-17T02:34:55.245Z,384.09
2023-02-17T02:38:12.218Z,379.89
2023-02-17T02:41:29.652Z,373.31
2023-02-17T02:44:35.599Z,370.32
2023-02-17T02:47:56.144Z,363.50
2023-02-17T02:51:35.564Z,375.62
2023-02-17T02:55:00.652Z,374.76
2023-02-17T02:58:22.401Z,372.91
2023-02-17T03:01:47.370Z,367.49
2023-02-17T03:05:14.249Z,362.63
2023-02-17T03:08:36.317Z,367.69
2023-02-17T03:11:49.129Z,367.99
2023-02-17T03:15:08.212Z,369.44
2023-02-17T03:18:14.424Z,353.73
2023-02-17T03:21:23.052Z,355.50
2023-02-17T03:24:36.463Z,351.49
2023-02-17T03:27:46.744Z,345.07
2023-02-17T03:30:53.794Z,346.27
2023-02-17T03:34:02.452Z,350.74
2023-02-17T03:37:08.274Z,352.00
2023-02-17T03:40:17.769Z,351.61
2023-02-17T03:43:23.877Z,357.25
2023-02-17T03:46:30.870Z,360.98
2023-02-17T03:49:36.927Z,373.24
2023-02-17T03:52:43.611Z,374.38
2023-02-17T03:55:52.220Z,359.77
2023-02-17T03:58:59.029Z,359.09
2023-02-17T04:02:04.925Z,361.00
2023-02-17T04:05:12.007Z,358.35
2023-02-17T04:08:18.019Z,359.25
2023-02-17T04:11:27.576Z,368.31
2023-02-17T04:14:33.507Z,365.92
2023-02-17T04:17:41.096Z,365.30
2023-02-17T04:20:47.385Z,362.67
2023-02-17T04:23:55.311Z,354.62
2023-02-17T04:27:03.937Z,362.35
2023-02-17T04:30:12.924Z,363.59
2023-02-17T04:33:20.344Z,379.75
2023-02-17T04:36:28.186Z,416.57
2023-02-17T04:39:34.100Z,440.09
2023-02-17T04:42:43.470Z,420.09
2023-02-17T04:45:49.344Z,401.37
2023-02-17T04:48:56.237Z,395.53
2023-02-17T04:52:02.360Z,431.10
2023-02-17T04:55:11.244Z,483.83
2023-02-17T04:58:20.958Z,405.94
2023-02-17T05:01:27.769Z,386.81
2023-02-17T05:04:34.395Z,379.32
2023-02-17T05:07:41.087Z,363.18
2023-02-17T05:10:47.385Z,370.61
2023-02-17T05:13:56.743Z,363.05
2023-02-17T05:17:02.627Z,376.96
2023-02-17T05:20:12.748Z,379.24
2023-02-17T05:23:18.706Z,387.69
2023-02-17T05:26:25.445Z,375.19
2023-02-17T05:29:33.972Z,372.91
2023-02-17T05:32:40.713Z,369.78
2023-02-17T05:35:46.608Z,363.49
2023-02-17T05:38:53.498Z,350.96
2023-02-17T05:41:59.472Z,359.73
2023-02-17T05:45:09.593Z,347.07
2023-02-17T05:48:15.686Z,352.18
2023-02-17T05:51:22.451Z,368.53
2023-02-17T05:54:28.374Z,378.69
2023-02-17T05:57:35.695Z,369.03
2023-02-17T06:00:44.195Z,385.16
2023-02-17T06:03:51.377Z,394.79
2023-02-17T06:06:57.303Z,414.45
2023-02-17T06:10:04.049Z,389.91
2023-02-17T06:13:09.953Z,393.69
2023-02-17T06:16:19.361Z,389.08
2023-02-17T06:19:25.228Z,390.97
2023-02-17T06:22:31.882Z,381.21
2023-02-17T06:25:37.788Z,375.35
2023-02-17T06:28:44.535Z,370.34
2023-02-17T06:31:53.207Z,353.43
2023-02-17T06:34:59.915Z,341.39
2023-02-17T06:38:05.832Z,345.25
2023-02-17T06:41:12.604Z,333.28
2023-02-17T06:44:18.502Z,335.65
2023-02-17T06:47:27.809Z,324.56
2023-02-17T06:50:33.704Z,321.23
2023-02-17T06:53:40.554Z,312.97
2023-02-17T06:56:46.781Z,299.06
2023-02-17T06:59:53.487Z,301.23
2023-02-17T07:03:02.123Z,301.65
2023-02-17T07:06:09.501Z,298.57
2023-02-17T07:09:15.449Z,304.29
2023-02-17T07:12:22.231Z,300.76
2023-02-17T07:15:28.510Z,304.84
2023-02-17T07:18:38.343Z,294.60
2023-02-17T07:21:44.446Z,305.29
2023-02-17T07:24:51.332Z,308.57
2023-02-17T07:27:57.343Z,308.24
2023-02-17T07:31:09.767Z,310.18
2023-02-17T07:34:18.336Z,301.24
2023-02-17T07:37:25.211Z,313.05
2023-02-17T07:40:31.994Z,321.38
2023-02-17T07:43:38.913Z,293.98
2023-02-17T07:46:45.042Z,288.91
2023-02-17T07:49:54.466Z,301.35
2023-02-17T07:53:00.347Z,303.07
2023-02-17T07:56:08.547Z,313.96
2023-02-17T07:59:16.396Z,303.67
2023-02-17T08:02:23.258Z,308.02
2023-02-17T08:05:31.911Z,327.05
2023-02-17T08:08:51.124Z,368.57
2023-02-17T08:12:09.606Z,362.43
2023-02-17T08:15:17.082Z,335.11
2023-02-17T08:18:23.058Z,341.63
2023-02-17T08:21:33.524Z,344.55
2023-02-17T08:24:39.389Z,342.20
2023-02-17T08:27:46.277Z,352.50
2023-02-17T08:30:52.177Z,304.51
2023-02-17T08:34:00.438Z,290.38
2023-02-17T08:37:10.238Z,312.81
2023-02-17T08:40:17.050Z,318.48
2023-02-17T08:43:22.905Z,326.62
2023-02-17T08:46:31.268Z,298.39
2023-02-17T08:49:37.341Z,285.29
2023-02-17T08:52:46.675Z,281.76
2023-02-17T08:55:52.460Z,276.27
2023-02-17T08:59:00.255Z,263.60
2023-02-17T09:02:06.320Z,269.79
2023-02-17T09:05:13.983Z,277.69
2023-02-17T09:08:23.466Z,282.61
2023-02-17T09:11:30.545Z,283.32
2023-02-17T09:14:36.828Z,293.70
2023-02-17T09:17:44.379Z,306.19
2023-02-17T09:20:50.520Z,273.07
2023-02-17T09:24:00.009Z,262.58
2023-02-17T09:27:06.100Z,288.15
2023-02-17T09:30:14.867Z,347.83
2023-02-17T09:33:20.801Z,366.23
2023-02-17T09:36:33.746Z,333.45
2023-02-17T09:39:42.334Z,285.56
2023-02-17T09:42:50.543Z,265.03
2023-02-17T09:46:04.369Z,260.57
2023-02-17T09:49:19.270Z,268.58
2023-02-17T09:52:36.537Z,279.54
2023-02-17T09:55:54.844Z,287.99
2023-02-17T09:59:10.343Z,256.95
2023-02-17T10:02:31.251Z,271.60
2023-02-17T10:05:45.562Z,263.49
2023-02-17T10:09:02.131Z,259.18
2023-02-17T10:12:18.889Z,270.69
2023-02-17T10:15:34.721Z,244.17
2023-02-17T10:18:50.619Z,244.15
2023-02-17T10:22:14.022Z,243.20
2023-02-17T10:25:28.226Z,244.58
2023-02-17T10:28:54.065Z,236.06
2023-02-17T10:32:22.484Z,247.09
2023-02-17T10:35:51.328Z,255.06
2023-02-17T10:39:09.614Z,254.81
2023-02-17T10:42:28.291Z,255.86
2023-02-17T10:45:41.397Z,250.06
2023-02-17T10:48:55.473Z,270.84
2023-02-17T10:52:09.062Z,277.10
2023-02-17T10:55:28.622Z,292.21
2023-02-17T10:58:44.357Z,269.55
2023-02-17T11:01:54.820Z,260.55
2023-02-17T11:05:00.822Z,236.89
2023-02-17T11:08:31.293Z,235.42
2023-02-17T11:11:40.033Z,255.84
2023-02-17T11:14:51.965Z,279.87
2023-02-17T11:18:11.910Z,253.55
2023-02-17T11:21:19.007Z,242.71
2023-02-17T11:24:25.549Z,272.09
2023-02-17T11:27:33.360Z,248.06
2023-02-17T11:30:41.715Z,225.30
2023-02-17T11:33:51.173Z,245.45
2023-02-17T11:37:07.236Z,228.84
2023-02-17T11:40:29.252Z,234.01
2023-02-17T11:43:36.031Z,245.97
2023-02-17T11:46:55.920Z,240.44
2023-02-17T11:50:41.277Z,230.36
2023-02-17T11:54:07.789Z,230.40
2023-02-17T11:57:39.260Z,252.31
2023-02-17T12:01:12.097Z,276.10
2023-02-17T12:04:30.975Z,271.86
2023-02-17T12:08:02.796Z,261.72
2023-02-17T12:11:32.181Z,269.30
2023-02-17T12:15:10.175Z,240.63
2023-02-17T12:18:42.397Z,249.53
2023-02-17T12:22:11.752Z,271.07
2023-02-17T12:25:31.150Z,314.49
2023-02-17T12:29:31.954Z,350.22
2023-02-17T12:33:08.193Z,282.60
2023-02-17T12:36:26.852Z,278.60
2023-02-17T12:39:44.690Z,266.74
2023-02-17T12:43:05.118Z,251.30
2023-02-17T12:46:23.280Z,237.86
2023-02-17T12:49:40.609Z,252.58
2023-02-17T12:53:03.678Z,246.17
2023-02-17T12:56:51.136Z,245.69
2023-02-17T13:00:05.616Z,246.95
2023-02-17T13:03:13.898Z,249.22
2023-02-17T13:06:39.452Z,248.50
2023-02-17T13:09:56.661Z,252.23
2023-02-17T13:13:21.274Z,264.24
2023-02-17T13:16:35.599Z,284.32
2023-02-17T13:19:42.267Z,260.61
2023-02-17T13:22:51.422Z,268.68
2023-02-17T13:26:29.373Z,264.25
2023-02-17T13:29:39.416Z,343.86
2023-02-17T13:33:08.917Z,320.66
2023-02-17T13:36:20.846Z,319.98
2023-02-17T13:39:41.792Z,274.97
2023-02-17T13:42:50.458Z,285.70
2023-02-17T13:46:10.955Z,326.53
2023-02-17T13:49:29.535Z,308.14
2023-02-17T13:52:36.111Z,337.97
2023-02-17T13:55:43.562Z,291.21
2023-02-17T13:58:49.412Z,259.63
2023-02-17T14:01:58.006Z,220.57
2023-02-17T14:05:21.850Z,209.22
2023-02-17T14:08:40.174Z,197.28
2023-02-17T14:11:46.304Z,202.75
2023-02-17T14:14:53.719Z,207.53
2023-02-17T14:18:00.275Z,209.15
2023-02-17T14:21:13.262Z,201.80
2023-02-17T14:24:32.201Z,226.57
2023-02-17T14:27:47.277Z,218.50
2023-02-17T14:30:54.713Z,217.41
2023-02-17T14:34:05.979Z,207.38
2023-02-17T14:37:31.173Z,214.48
2023-02-17T14:40:40.013Z,240.80
2023-02-17T14:43:46.056Z,228.27
2023-02-17T14:46:52.782Z,228.40
2023-02-17T14:49:58.737Z,230.66
2023-02-17T14:53:17.614Z,235.55
2023-02-17T14:56:32.671Z,250.33
2023-02-17T14:59:39.836Z,242.91
2023-02-17T15:02:45.987Z,243.65
2023-02-17T15:05:53.485Z,251.13
2023-02-17T15:09:04.275Z,279.72
2023-02-17T15:12:20.233Z,273.56
2023-02-17T15:15:26.575Z,271.58
2023-02-17T15:18:33.547Z,273.71
2023-02-17T15:21:43.239Z,274.33
2023-02-17T15:24:53.236Z,276.86
2023-02-17T15:27:59.504Z,276.77
2023-02-17T15:31:06.747Z,303.04
2023-02-17T15:34:18.970Z,264.35
2023-02-17T15:37:25.886Z,235.97
2023-02-17T15:40:34.908Z,248.93
2023-02-17T15:43:41.921Z,238.93
2023-02-17T15:46:49.066Z,223.30
2023-02-17T15:49:55.825Z,211.55
2023-02-17T15:53:02.728Z,193.92
2023-02-17T15:56:22.335Z,206.13
2023-02-17T15:59:31.123Z,196.91
2023-02-17T16:02:37.959Z,199.48
2023-02-17T16:05:45.537Z,203.47
2023-02-17T16:08:52.545Z,215.99
2023-02-17T16:12:01.815Z,208.19
2023-02-17T16:15:14.226Z,204.26
2023-02-17T16:18:26.009Z,214.08
2023-02-17T16:21:39.561Z,229.46
2023-02-17T16:24:47.031Z,221.14
2023-02-17T16:27:58.087Z,240.46
2023-02-17T16:31:13.822Z,207.66
2023-02-17T16:34:24.882Z,222.21
2023-02-17T16:37:30.968Z,224.80
2023-02-17T16:40:47.338Z,240.55
2023-02-17T16:43:58.942Z,220.53
2023-02-17T16:47:08.987Z,218.98
2023-02-17T16:50:27.126Z,211.60
2023-02-17T16:53:33.993Z,212.29
2023-02-17T16:56:46.496Z,216.67
2023-02-17T16:59:56.183Z,219.96
2023-02-17T17:03:04.998Z,192.53
2023-02-17T17:06:25.719Z,202.63
2023-02-17T17:09:31.636Z,193.91
2023-02-17T17:12:38.882Z,200.07
2023-02-17T17:15:49.084Z,196.73
2023-02-17T17:18:56.309Z,191.12
2023-02-17T17:22:04.960Z,194.99
2023-02-17T17:25:18.517Z,207.91
2023-02-17T17:28:26.562Z,207.20
2023-02-17T17:31:40.965Z,179.34
2023-02-17T17:34:47.176Z,181.12
2023-02-17T17:37:54.289Z,207.21
2023-02-17T17:41:00.292Z,190.19
2023-02-17T17:44:10.481Z,190.80
2023-02-17T17:47:29.821Z,195.50
2023-02-17T17:50:36.792Z,182.10
2023-02-17T17:53:42.892Z,186.08
2023-02-17T17:56:50.504Z,189.88
2023-02-17T17:59:58.172Z,185.37
2023-02-17T18:03:08.017Z,163.48
2023-02-17T18:06:21.886Z,162.03
2023-02-17T18:09:36.035Z,172.71
2023-02-17T18:12:45.334Z,179.20
2023-02-17T18:15:52.635Z,172.55
2023-02-17T18:19:06.091Z,193.99
2023-02-17T18:22:16.323Z,182.08
2023-02-17T18:25:23.200Z,176.64
2023-02-17T18:28:30.034Z,182.68
2023-02-17T18:31:38.120Z,182.24
2023-02-17T18:34:47.449Z,190.57
2023-02-17T18:37:53.915Z,184.33
2023-02-17T18:41:03.210Z,188.00
2023-02-17T18:44:11.207Z,184.28
2023-02-17T18:47:18.024Z,187.36
2023-02-17T18:50:27.107Z,181.67
2023-02-17T18:53:36.245Z,211.62
2023-02-17T18:56:42.326Z,212.42
2023-02-17T18:59:50.788Z,189.58
2023-02-17T19:03:03.484Z,186.94
2023-02-17T19:06:19.422Z,177.45
2023-02-17T19:09:25.306Z,197.67
2023-02-17T19:12:32.159Z,200.76
2023-02-17T19:15:38.161Z,186.93
2023-02-17T19:18:46.949Z,182.47
2023-02-17T19:21:56.093Z,189.57
2023-02-17T19:25:07.012Z,174.38
2023-02-17T19:28:13.134Z,177.85
2023-02-17T19:31:23.452Z,170.78
2023-02-17T19:34:31.357Z,182.12
2023-02-17T19:37:43.662Z,183.99
2023-02-17T19:40:50.658Z,181.94
2023-02-17T19:43:57.379Z,176.84
2023-02-17T19:47:05.007Z,187.02
2023-02-17T19:50:12.352Z,181.19
2023-02-17T19:53:27.601Z,177.69
2023-02-17T19:56:37.157Z,181.09
2023-02-17T19:59:43.017Z,180.13
2023-02-17T20:02:50.220Z,176.83
2023-02-17T20:05:56.179Z,179.19
2023-02-17T20:09:14.878Z,174.35
2023-02-17T20:12:21.939Z,204.69
2023-02-17T20:15:28.864Z,179.95
2023-02-17T20:18:34.772Z,174.10
2023-02-17T20:21:47.176Z,179.77
2023-02-17T20:24:55.720Z,166.78
2023-02-17T20:28:04.380Z,175.31
2023-02-17T20:31:11.980Z,205.17
2023-02-17T20:34:34.901Z,205.82
2023-02-17T20:37:40.748Z,212.11
2023-02-17T20:40:50.122Z,209.63
2023-02-17T20:43:56.344Z,207.06
2023-02-17T20:47:17.587Z,195.25
2023-02-17T20:50:26.171Z,185.53
2023-02-17T20:53:32.903Z,186.85
2023-02-17T20:56:45.376Z,204.66
2023-02-17T20:59:52.249Z,196.70
2023-02-17T21:02:58.590Z,168.66
2023-02-17T21:06:24.356Z,194.21
2023-02-17T21:09:30.698Z,196.93
2023-02-17T21:12:40.602Z,197.18
2023-02-17T21:15:46.794Z,192.53
2023-02-17T21:18:55.293Z,190.41
2023-02-17T21:22:01.522Z,201.64
2023-02-17T21:25:12.240Z,208.01
2023-02-17T21:28:25.445Z,198.07
2023-02-17T21:31:32.359Z,185.07
2023-02-17T21:34:42.032Z,192.63
2023-02-17T21:37:48.937Z,177.05
2023-02-17T21:40:55.033Z,150.76
2023-02-17T21:44:16.928Z,142.31
2023-02-17T21:47:26.912Z,137.92
2023-02-17T21:50:37.505Z,131.75
2023-02-17T21:53:43.790Z,131.80
2023-02-17T21:56:50.629Z,127.98
2023-02-17T21:59:59.245Z,146.27
2023-02-17T22:03:05.980Z,148.23
2023-02-17T22:06:22.435Z,136.18
2023-02-17T22:09:32.431Z,128.21
2023-02-17T22:12:39.842Z,141.98
2023-02-17T22:15:49.237Z,172.46
2023-02-17T22:18:55.457Z,170.39
2023-02-17T22:22:08.639Z,140.76
2023-02-17T22:25:33.526Z,114.29
2023-02-17T22:28:40.313Z,114.63
2023-02-17T22:31:50.630Z,111.55
2023-02-17T22:34:57.707Z,124.49
2023-02-17T22:38:03.702Z,127.56
2023-02-17T22:41:13.870Z,124.53
2023-02-17T22:44:20.023Z,129.76
2023-02-17T22:47:29.575Z,126.54
2023-02-17T22:50:35.547Z,117.12
2023-02-17T22:53:42.903Z,112.12
2023-02-17T22:56:48.945Z,113.75
2023-02-17T22:59:55.767Z,120.05
2023-02-17T23:03:04.374Z,122.52
2023-02-17T23:06:18.122Z,118.98
2023-02-17T23:09:24.064Z,131.15
2023-02-17T23:12:30.877Z,124.42
2023-02-17T23:15:42.562Z,125.33
2023-02-17T23:18:52.004Z,124.70
2023-02-17T23:22:03.187Z,125.66
2023-02-17T23:25:09.979Z,128.84
2023-02-17T23:28:16.010Z,141.88
2023-02-17T23:31:22.852Z,141.02
2023-02-17T23:34:32.183Z,153.97
2023-02-17T23:37:38.949Z,198.91
2023-02-17T23:40:45.561Z,236.24
2023-02-17T23:43:52.457Z,158.53
2023-02-17T23:46:58.286Z,117.78
2023-02-17T23:50:09.821Z,111.12
2023-02-17T23:53:15.896Z,110.32
2023-02-17T23:56:27.954Z,110.52
2023-02-17T23:59:40.667Z,120.78
